createdAt,value
2023-05-08T04:01:20.594Z,6.84
2023-05-08T04:05:31.822Z,6.84
2023-05-08T04:09:39.876Z,6.88
2023-05-08T04:13:47.793Z,6.98
2023-05-08T04:17:58.407Z,7.20
2023-05-08T04:22:07.579Z,7.30
2023-05-08T04:26:15.916Z,7.41
2023-05-08T04:30:20.148Z,7.52
2023-05-08T04:34:24.358Z,7.61
2023-05-08T04:38:27.042Z,7.71
2023-05-08T04:42:30.146Z,7.87
2023-05-08T04:46:35.293Z,8.05
2023-05-08T04:50:39.404Z,8.21
2023-05-08T04:54:41.998Z,8.25
2023-05-08T04:58:44.678Z,8.38
2023-05-08T05:02:47.671Z,8.50
2023-05-08T05:06:51.664Z,8.81
2023-05-08T05:10:54.335Z,9.01
2023-05-08T05:14:57.022Z,9.28
2023-05-08T05:19:00.468Z,9.40
2023-05-08T05:23:04.940Z,9.52
2023-05-08T05:27:07.523Z,9.61
2023-05-08T05:31:10.743Z,9.77
2023-05-08T05:35:14.539Z,10.06
2023-05-08T05:39:18.744Z,10.36
2023-05-08T05:43:21.416Z,10.68
2023-05-08T05:47:24.030Z,10.98
2023-05-08T05:51:27.620Z,11.24
2023-05-08T05:55:32.299Z,11.43
2023-05-08T05:59:35.048Z,11.64
2023-05-08T06:03:38.555Z,11.87
2023-05-08T06:07:41.216Z,12.03
2023-05-08T06:11:45.148Z,12.23
2023-05-08T06:15:47.784Z,12.37
2023-05-08T06:19:50.627Z,12.52
2023-05-08T06:23:53.164Z,12.64
2023-05-08T06:27:57.085Z,12.70
2023-05-08T06:32:00.769Z,12.78
2023-05-08T06:36:05.930Z,13.12
2023-05-08T06:40:12.291Z,13.56
2023-05-08T06:44:17.028Z,13.74
2023-05-08T06:48:19.798Z,13.72
2023-05-08T06:52:24.455Z,13.80
2023-05-08T06:56:27.120Z,14.02
2023-05-08T07:00:31.044Z,14.35
2023-05-08T07:04:33.629Z,14.88
2023-05-08T07:08:36.338Z,15.25
2023-05-08T07:12:38.982Z,14.96
2023-05-08T07:16:42.949Z,15.30
2023-05-08T07:20:45.560Z,15.31
2023-05-08T07:24:48.069Z,15.53
2023-05-08T07:28:53.733Z,15.11
2023-05-08T07:32:57.618Z,14.72
2023-05-08T07:37:00.305Z,14.42
2023-05-08T07:41:02.885Z,14.38
2023-05-08T07:45:06.012Z,14.54
2023-05-08T07:49:09.878Z,14.67
2023-05-08T07:53:12.351Z,14.86
2023-05-08T07:57:14.905Z,15.07
2023-05-08T08:01:18.285Z,15.27
2023-05-08T08:05:22.594Z,15.44
2023-05-08T08:09:25.616Z,15.66
2023-05-08T08:13:28.265Z,16.02
2023-05-08T08:17:30.903Z,16.16
2023-05-08T08:21:34.875Z,15.88
2023-05-08T08:25:37.384Z,15.77
2023-05-08T08:29:39.953Z,15.88
2023-05-08T08:33:42.486Z,16.15
2023-05-08T08:37:46.394Z,16.11
2023-05-08T08:41:48.964Z,16.13
2023-05-08T08:45:51.729Z,16.51
2023-05-08T08:49:55.729Z,16.44
2023-05-08T08:54:05.558Z,16.73
2023-05-08T08:58:15.965Z,16.81
2023-05-08T09:02:21.432Z,17.08
2023-05-08T09:06:24.153Z,17.15
2023-05-08T09:10:28.282Z,17.01
2023-05-08T09:14:30.927Z,17.14
2023-05-08T09:18:33.442Z,17.25
2023-05-08T09:22:37.368Z,17.21
2023-05-08T09:26:42.420Z,17.20
2023-05-08T09:30:56.227Z,17.44
2023-05-08T09:34:59.007Z,17.59
2023-05-08T09:39:01.738Z,17.69
2023-05-08T09:43:14.250Z,17.99
2023-05-08T09:47:18.783Z,18.08
2023-05-08T09:51:21.926Z,17.99
2023-05-08T09:55:24.478Z,18.38
2023-05-08T09:59:30.768Z,18.29
2023-05-08T10:03:50.659Z,18.49
2023-05-08T10:07:53.553Z,18.71
2023-05-08T10:11:56.473Z,18.74
2023-05-08T10:16:01.074Z,18.85
2023-05-08T10:20:08.629Z,18.88
2023-05-08T10:24:16.259Z,18.97
2023-05-08T10:28:25.928Z,18.99
2023-05-08T10:32:37.827Z,19.09
2023-05-08T10:36:41.216Z,19.01
2023-05-08T10:40:44.499Z,19.07
2023-05-08T10:44:47.381Z,19.42
2023-05-08T10:49:08.111Z,19.32
2023-05-08T10:53:18.314Z,19.47
2023-05-08T10:57:21.473Z,19.31
2023-05-08T11:01:23.987Z,19.56
2023-05-08T11:05:28.656Z,19.76
2023-05-08T11:09:45.698Z,19.66
2023-05-08T11:13:53.511Z,19.76
2023-05-08T11:17:56.065Z,19.79
2023-05-08T11:22:24.161Z,20.02
2023-05-08T11:26:40.419Z,20.05
2023-05-08T11:30:45.501Z,20.13
2023-05-08T11:34:49.844Z,20.18
2023-05-08T11:39:08.562Z,20.08
2023-05-08T11:43:25.935Z,20.00
2023-05-08T11:47:37.274Z,19.99
2023-05-08T11:51:44.629Z,20.21
2023-05-08T11:55:50.261Z,19.97
2023-05-08T11:59:52.833Z,19.83
2023-05-08T12:04:01.490Z,20.16
2023-05-08T12:08:06.432Z,20.69
2023-05-08T12:12:10.296Z,20.41
2023-05-08T12:16:12.814Z,20.10
2023-05-08T12:20:17.778Z,20.21
2023-05-08T12:24:23.189Z,20.17
2023-05-08T12:28:27.602Z,20.57
2023-05-08T12:32:30.771Z,20.67
2023-05-08T12:36:36.921Z,20.93
2023-05-08T12:40:43.650Z,20.81
2023-05-08T12:44:52.902Z,20.89
2023-05-08T12:49:02.583Z,20.82
2023-05-08T12:53:06.228Z,20.62
2023-05-08T12:57:12.634Z,20.73
2023-05-08T13:01:16.567Z,21.04
2023-05-08T13:05:21.033Z,21.04
2023-05-08T13:09:24.064Z,21.07
2023-05-08T13:13:27.649Z,21.06
2023-05-08T13:17:31.640Z,21.03
2023-05-08T13:21:34.196Z,21.18
2023-05-08T13:25:38.131Z,21.18
2023-05-08T13:29:40.642Z,20.81
2023-05-08T13:33:44.499Z,20.84
2023-05-08T13:37:47.554Z,21.26
2023-05-08T13:41:49.934Z,21.46
2023-05-08T13:45:52.573Z,21.65
2023-05-08T13:49:56.580Z,21.99
2023-05-08T13:53:59.073Z,22.04
2023-05-08T13:58:02.757Z,22.10
2023-05-08T14:02:05.575Z,22.00
2023-05-08T14:06:09.626Z,22.54
2023-05-08T14:10:12.249Z,22.71
2023-05-08T14:14:14.759Z,22.49
2023-05-08T14:18:17.262Z,22.85
2023-05-08T14:22:21.177Z,23.04
2023-05-08T14:26:23.919Z,22.97
2023-05-08T14:30:26.718Z,23.43
2023-05-08T14:34:29.324Z,23.44
2023-05-08T14:38:33.227Z,23.49
2023-05-08T14:42:36.466Z,23.45
2023-05-08T14:46:39.020Z,23.25
2023-05-08T14:50:41.735Z,23.58
2023-05-08T14:54:47.731Z,24.11
2023-05-08T14:58:50.458Z,23.52
2023-05-08T15:02:53.125Z,23.69
2023-05-08T15:06:55.802Z,23.64
2023-05-08T15:10:59.761Z,23.45
2023-05-08T15:15:04.393Z,24.06
2023-05-08T15:19:09.215Z,24.18
2023-05-08T15:23:11.857Z,23.71
2023-05-08T15:27:15.717Z,23.93
2023-05-08T15:31:18.658Z,24.01
2023-05-08T15:35:21.251Z,24.16
2023-05-08T15:39:23.848Z,24.08
2023-05-08T15:43:27.706Z,24.14
2023-05-08T15:47:31.311Z,24.19
2023-05-08T15:51:34.074Z,24.35
2023-05-08T15:55:36.596Z,24.76
2023-05-08T15:59:40.517Z,24.48
2023-05-08T16:03:43.083Z,24.14
2023-05-08T16:07:45.656Z,24.01
2023-05-08T16:11:48.567Z,23.75
2023-05-08T16:15:52.339Z,24.09
2023-05-08T16:19:54.974Z,24.03
2023-05-08T16:23:57.779Z,24.25
2023-05-08T16:28:00.263Z,24.25
2023-05-08T16:32:04.153Z,23.81
2023-05-08T16:36:07.132Z,23.76
2023-05-08T16:40:10.149Z,23.76
2023-05-08T16:44:12.700Z,24.42
2023-05-08T16:48:16.968Z,24.71
2023-05-08T16:52:19.491Z,24.61
2023-05-08T16:56:23.004Z,24.86
2023-05-08T17:00:25.728Z,24.36
2023-05-08T17:04:30.872Z,24.39
2023-05-08T17:08:33.537Z,24.45
2023-05-08T17:12:36.065Z,24.01
2023-05-08T17:16:39.009Z,24.42
2023-05-08T17:20:42.919Z,23.83
2023-05-08T17:24:54.575Z,23.76
2023-05-08T17:28:57.388Z,23.43
2023-05-08T17:32:59.958Z,23.54
2023-05-08T17:37:04.236Z,23.69
2023-05-08T17:41:06.735Z,23.45
2023-05-08T17:45:09.835Z,23.46
2023-05-08T17:49:12.981Z,23.17
2023-05-08T17:53:16.840Z,22.83
2023-05-08T17:57:19.318Z,22.08
2023-05-08T18:01:22.398Z,21.62
2023-05-08T18:05:25.257Z,21.36
2023-05-08T18:09:29.168Z,21.02
2023-05-08T18:13:32.944Z,20.61
2023-05-08T18:17:35.480Z,20.21
2023-05-08T18:21:38.135Z,19.78
2023-05-08T18:25:41.960Z,19.59
2023-05-08T18:29:44.498Z,19.08
2023-05-08T18:33:47.037Z,18.83
2023-05-08T18:37:49.589Z,18.50
2023-05-08T18:41:53.399Z,18.35
2023-05-08T18:45:56.097Z,18.20
2023-05-08T18:49:59.913Z,17.96
2023-05-08T18:54:02.522Z,17.44
2023-05-08T18:58:06.875Z,16.86
2023-05-08T19:02:09.430Z,16.34
2023-05-08T19:06:13.452Z,16.23
2023-05-08T19:10:16.322Z,15.98
2023-05-08T19:14:20.379Z,15.78
2023-05-08T19:18:23.025Z,15.76
2023-05-08T19:22:25.611Z,15.58
2023-05-08T19:26:28.689Z,15.71
2023-05-08T19:30:32.554Z,15.55
2023-05-08T19:34:36.982Z,15.53
2023-05-08T19:38:40.293Z,15.41
2023-05-08T19:42:43.360Z,15.32
2023-05-08T19:46:47.303Z,14.92
2023-05-08T19:50:50.584Z,14.78
2023-05-08T19:54:54.497Z,14.54
2023-05-08T19:58:57.036Z,14.45
2023-05-08T20:03:00.989Z,14.21
2023-05-08T20:07:03.615Z,13.99
2023-05-08T20:11:07.799Z,13.86
2023-05-08T20:15:11.537Z,13.72
2023-05-08T20:19:15.618Z,13.53
2023-05-08T20:23:18.198Z,13.49
2023-05-08T20:27:20.739Z,13.36
2023-05-08T20:31:23.384Z,13.11
2023-05-08T20:35:27.276Z,13.03
2023-05-08T20:39:29.800Z,13.06
2023-05-08T20:43:32.340Z,12.84
2023-05-08T20:47:34.998Z,12.59
2023-05-08T20:51:38.888Z,12.48
2023-05-08T20:55:41.396Z,12.48
2023-05-08T20:59:43.942Z,12.33
